sensor_id;sensor_type;location;lat;lon;timestamp;P1;durP1;ratioP1;P2;durP2;ratioP2
77625;SDS011;66794;43.764;10.436;2024-02-16T00:01:03;46.95;;;34.65;;
77625;SDS011;66794;43.764;10.436;2024-02-16T00:03:48;45.13;;;36.00;;
77625;SDS011;66794;43.764;10.436;2024-02-16T00:06:34;48.38;;;35.95;;
77625;SDS011;66794;43.764;10.436;2024-02-16T00:09:20;44.33;;;34.80;;
77625;SDS011;66794;43.764;10.436;2024-02-16T00:12:05;47.53;;;35.67;;
77625;SDS011;66794;43.764;10.436;2024-02-16T00:14:51;48.65;;;37.03;;
77625;SDS011;66794;43.764;10.436;2024-02-16T00:17:37;47.63;;;35.70;;
77625;SDS011;66794;43.764;10.436;2024-02-16T00:20:22;48.50;;;37.50;;
77625;SDS011;66794;43.764;10.436;2024-02-16T00:23:09;46.67;;;35.80;;
77625;SDS011;66794;43.764;10.436;2024-02-16T00:25:56;52.67;;;36.83;;
77625;SDS011;66794;43.764;10.436;2024-02-16T00:28:41;47.85;;;35.78;;
77625;SDS011;66794;43.764;10.436;2024-02-16T00:31:27;51.17;;;34.97;;
77625;SDS011;66794;43.764;10.436;2024-02-16T00:34:13;56.78;;;35.55;;
77625;SDS011;66794;43.764;10.436;2024-02-16T00:36:58;46.20;;;34.33;;
77625;SDS011;66794;43.764;10.436;2024-02-16T00:39:44;45.22;;;33.83;;
77625;SDS011;66794;43.764;10.436;2024-02-16T00:42:29;47.70;;;34.67;;
77625;SDS011;66794;43.764;10.436;2024-02-16T00:45:16;50.30;;;34.92;;
77625;SDS011;66794;43.764;10.436;2024-02-16T00:48:02;46.67;;;33.45;;
77625;SDS011;66794;43.764;10.436;2024-02-16T00:50:49;43.28;;;34.00;;
77625;SDS011;66794;43.764;10.436;2024-02-16T00:53:34;47.03;;;34.50;;
77625;SDS011;66794;43.764;10.436;2024-02-16T00:56:20;44.65;;;33.75;;
77625;SDS011;66794;43.764;10.436;2024-02-16T00:59:05;45.17;;;33.35;;
77625;SDS011;66794;43.764;10.436;2024-02-16T01:01:54;43.88;;;34.40;;
77625;SDS011;66794;43.764;10.436;2024-02-16T01:04:40;44.05;;;33.97;;
77625;SDS011;66794;43.764;10.436;2024-02-16T01:07:25;44.13;;;32.08;;
77625;SDS011;66794;43.764;10.436;2024-02-16T01:10:11;44.13;;;33.13;;
77625;SDS011;66794;43.764;10.436;2024-02-16T01:12:57;45.30;;;34.92;;
77625;SDS011;66794;43.764;10.436;2024-02-16T01:15:43;47.28;;;34.70;;
77625;SDS011;66794;43.764;10.436;2024-02-16T01:18:29;46.92;;;33.03;;
77625;SDS011;66794;43.764;10.436;2024-02-16T01:21:15;49.25;;;33.50;;
77625;SDS011;66794;43.764;10.436;2024-02-16T01:24:01;49.05;;;31.85;;
77625;SDS011;66794;43.764;10.436;2024-02-16T01:26:47;45.67;;;30.50;;
77625;SDS011;66794;43.764;10.436;2024-02-16T01:29:33;42.28;;;31.23;;
77625;SDS011;66794;43.764;10.436;2024-02-16T01:32:18;46.22;;;32.15;;
77625;SDS011;66794;43.764;10.436;2024-02-16T01:35:04;46.42;;;30.00;;
77625;SDS011;66794;43.764;10.436;2024-02-16T01:37:50;43.92;;;30.52;;
77625;SDS011;66794;43.764;10.436;2024-02-16T01:40:35;39.03;;;30.77;;
77625;SDS011;66794;43.764;10.436;2024-02-16T01:43:21;39.80;;;29.75;;
77625;SDS011;66794;43.764;10.436;2024-02-16T01:46:06;38.97;;;29.38;;
77625;SDS011;66794;43.764;10.436;2024-02-16T01:48:53;41.03;;;29.42;;
77625;SDS011;66794;43.764;10.436;2024-02-16T01:51:40;43.00;;;30.13;;
77625;SDS011;66794;43.764;10.436;2024-02-16T01:54:26;40.97;;;29.45;;
77625;SDS011;66794;43.764;10.436;2024-02-16T01:57:12;44.58;;;31.77;;
77625;SDS011;66794;43.764;10.436;2024-02-16T01:59:58;49.03;;;32.00;;
77625;SDS011;66794;43.764;10.436;2024-02-16T02:02:44;45.60;;;32.28;;
77625;SDS011;66794;43.764;10.436;2024-02-16T02:05:31;43.47;;;31.17;;
77625;SDS011;66794;43.764;10.436;2024-02-16T02:08:17;40.85;;;30.48;;
77625;SDS011;66794;43.764;10.436;2024-02-16T02:11:02;39.85;;;29.70;;
77625;SDS011;66794;43.764;10.436;2024-02-16T02:13:48;42.13;;;29.77;;
77625;SDS011;66794;43.764;10.436;2024-02-16T02:16:34;40.58;;;31.58;;
77625;SDS011;66794;43.764;10.436;2024-02-16T02:19:19;44.42;;;33.75;;
77625;SDS011;66794;43.764;10.436;2024-02-16T02:22:20;44.25;;;34.72;;
77625;SDS011;66794;43.764;10.436;2024-02-16T02:25:06;41.17;;;32.38;;
77625;SDS011;66794;43.764;10.436;2024-02-16T02:27:52;45.58;;;35.60;;
77625;SDS011;66794;43.764;10.436;2024-02-16T02:30:37;50.20;;;35.97;;
77625;SDS011;66794;43.764;10.436;2024-02-16T02:33:23;46.95;;;35.05;;
77625;SDS011;66794;43.764;10.436;2024-02-16T02:36:09;50.70;;;36.50;;
77625;SDS011;66794;43.764;10.436;2024-02-16T02:38:54;49.42;;;36.10;;
77625;SDS011;66794;43.764;10.436;2024-02-16T02:41:40;43.65;;;33.47;;
77625;SDS011;66794;43.764;10.436;2024-02-16T02:44:26;48.90;;;33.72;;
77625;SDS011;66794;43.764;10.436;2024-02-16T02:47:11;46.72;;;34.60;;
77625;SDS011;66794;43.764;10.436;2024-02-16T02:49:57;51.92;;;35.78;;
77625;SDS011;66794;43.764;10.436;2024-02-16T02:52:43;51.00;;;36.67;;
77625;SDS011;66794;43.764;10.436;2024-02-16T02:55:30;45.53;;;34.65;;
77625;SDS011;66794;43.764;10.436;2024-02-16T02:58:16;54.05;;;38.20;;
77625;SDS011;66794;43.764;10.436;2024-02-16T03:01:03;48.92;;;38.15;;
77625;SDS011;66794;43.764;10.436;2024-02-16T03:03:48;52.47;;;36.00;;
77625;SDS011;66794;43.764;10.436;2024-02-16T03:06:34;55.75;;;39.28;;
77625;SDS011;66794;43.764;10.436;2024-02-16T03:09:19;51.17;;;39.13;;
77625;SDS011;66794;43.764;10.436;2024-02-16T03:12:05;52.85;;;37.83;;
77625;SDS011;66794;43.764;10.436;2024-02-16T03:14:51;48.80;;;37.42;;
77625;SDS011;66794;43.764;10.436;2024-02-16T03:17:36;49.78;;;36.38;;
77625;SDS011;66794;43.764;10.436;2024-02-16T03:20:22;47.13;;;35.40;;
77625;SDS011;66794;43.764;10.436;2024-02-16T03:23:08;48.65;;;36.05;;
77625;SDS011;66794;43.764;10.436;2024-02-16T03:25:53;48.25;;;35.55;;
77625;SDS011;66794;43.764;10.436;2024-02-16T03:28:40;44.92;;;34.88;;
77625;SDS011;66794;43.764;10.436;2024-02-16T03:31:25;46.30;;;34.83;;
77625;SDS011;66794;43.764;10.436;2024-02-16T03:34:11;44.35;;;34.35;;
77625;SDS011;66794;43.764;10.436;2024-02-16T03:36:56;49.17;;;35.90;;
77625;SDS011;66794;43.764;10.436;2024-02-16T03:39:44;45.38;;;34.38;;
77625;SDS011;66794;43.764;10.436;2024-02-16T03:42:29;51.40;;;37.83;;
77625;SDS011;66794;43.764;10.436;2024-02-16T03:45:15;44.85;;;34.53;;
77625;SDS011;66794;43.764;10.436;2024-02-16T03:48:01;47.40;;;35.70;;
77625;SDS011;66794;43.764;10.436;2024-02-16T03:50:47;48.70;;;36.65;;
77625;SDS011;66794;43.764;10.436;2024-02-16T03:53:33;45.70;;;36.22;;
77625;SDS011;66794;43.764;10.436;2024-02-16T03:56:19;48.38;;;36.70;;
77625;SDS011;66794;43.764;10.436;2024-02-16T03:59:05;48.42;;;35.92;;
77625;SDS011;66794;43.764;10.436;2024-02-16T04:01:51;45.75;;;34.15;;
77625;SDS011;66794;43.764;10.436;2024-02-16T04:04:37;47.42;;;36.13;;
77625;SDS011;66794;43.764;10.436;2024-02-16T04:07:23;46.08;;;33.45;;
77625;SDS011;66794;43.764;10.436;2024-02-16T04:10:09;48.78;;;36.20;;
77625;SDS011;66794;43.764;10.436;2024-02-16T04:12:54;47.67;;;36.33;;
77625;SDS011;66794;43.764;10.436;2024-02-16T04:15:40;50.45;;;37.55;;
77625;SDS011;66794;43.764;10.436;2024-02-16T04:18:26;49.10;;;37.55;;
77625;SDS011;66794;43.764;10.436;2024-02-16T04:21:11;54.58;;;38.53;;
77625;SDS011;66794;43.764;10.436;2024-02-16T04:23:57;51.00;;;38.30;;
77625;SDS011;66794;43.764;10.436;2024-02-16T04:26:43;49.70;;;37.38;;
77625;SDS011;66794;43.764;10.436;2024-02-16T04:29:28;46.78;;;35.47;;
77625;SDS011;66794;43.764;10.436;2024-02-16T04:32:14;49.67;;;36.55;;
77625;SDS011;66794;43.764;10.436;2024-02-16T04:34:59;47.13;;;35.42;;
77625;SDS011;66794;43.764;10.436;2024-02-16T04:37:45;41.83;;;32.10;;
77625;SDS011;66794;43.764;10.436;2024-02-16T04:40:33;40.83;;;32.35;;
77625;SDS011;66794;43.764;10.436;2024-02-16T04:43:20;38.35;;;30.40;;
77625;SDS011;66794;43.764;10.436;2024-02-16T04:46:05;41.83;;;31.70;;
77625;SDS011;66794;43.764;10.436;2024-02-16T04:48:51;41.03;;;31.52;;
77625;SDS011;66794;43.764;10.436;2024-02-16T04:51:36;41.00;;;29.65;;
77625;SDS011;66794;43.764;10.436;2024-02-16T04:54:24;40.67;;;31.05;;
77625;SDS011;66794;43.764;10.436;2024-02-16T04:57:10;43.78;;;33.78;;
77625;SDS011;66794;43.764;10.436;2024-02-16T04:59:56;44.10;;;33.22;;
77625;SDS011;66794;43.764;10.436;2024-02-16T05:02:41;45.95;;;33.72;;
77625;SDS011;66794;43.764;10.436;2024-02-16T05:05:27;44.72;;;31.33;;
77625;SDS011;66794;43.764;10.436;2024-02-16T05:08:13;41.25;;;30.17;;
77625;SDS011;66794;43.764;10.436;2024-02-16T05:11:02;36.30;;;28.05;;
77625;SDS011;66794;43.764;10.436;2024-02-16T05:13:48;41.50;;;29.73;;
77625;SDS011;66794;43.764;10.436;2024-02-16T05:16:34;37.53;;;28.60;;
77625;SDS011;66794;43.764;10.436;2024-02-16T05:19:19;41.72;;;30.13;;
77625;SDS011;66794;43.764;10.436;2024-02-16T05:22:05;37.70;;;29.55;;
77625;SDS011;66794;43.764;10.436;2024-02-16T05:24:51;38.75;;;29.42;;
77625;SDS011;66794;43.764;10.436;2024-02-16T05:27:37;42.28;;;30.63;;
77625;SDS011;66794;43.764;10.436;2024-02-16T05:30:23;44.22;;;32.13;;
77625;SDS011;66794;43.764;10.436;2024-02-16T05:33:09;47.38;;;34.47;;
77625;SDS011;66794;43.764;10.436;2024-02-16T05:35:54;51.80;;;34.97;;
77625;SDS011;66794;43.764;10.436;2024-02-16T05:38:44;50.53;;;36.75;;
77625;SDS011;66794;43.764;10.436;2024-02-16T05:41:29;50.15;;;36.60;;
77625;SDS011;66794;43.764;10.436;2024-02-16T05:44:15;50.05;;;35.92;;
77625;SDS011;66794;43.764;10.436;2024-02-16T05:47:00;54.72;;;38.15;;
77625;SDS011;66794;43.764;10.436;2024-02-16T05:49:48;50.78;;;37.10;;
77625;SDS011;66794;43.764;10.436;2024-02-16T05:52:33;48.60;;;34.53;;
77625;SDS011;66794;43.764;10.436;2024-02-16T05:55:19;45.05;;;33.50;;
77625;SDS011;66794;43.764;10.436;2024-02-16T05:58:05;39.30;;;29.45;;
77625;SDS011;66794;43.764;10.436;2024-02-16T06:00:51;48.55;;;36.22;;
77625;SDS011;66794;43.764;10.436;2024-02-16T06:03:36;52.17;;;37.97;;
77625;SDS011;66794;43.764;10.436;2024-02-16T06:06:22;51.60;;;37.67;;
77625;SDS011;66794;43.764;10.436;2024-02-16T06:09:08;50.55;;;35.13;;
77625;SDS011;66794;43.764;10.436;2024-02-16T06:11:53;44.75;;;33.70;;
77625;SDS011;66794;43.764;10.436;2024-02-16T06:14:39;45.25;;;31.63;;
77625;SDS011;66794;43.764;10.436;2024-02-16T06:17:24;39.22;;;27.35;;
77625;SDS011;66794;43.764;10.436;2024-02-16T06:20:10;44.92;;;28.15;;
77625;SDS011;66794;43.764;10.436;2024-02-16T06:22:56;36.13;;;27.30;;
77625;SDS011;66794;43.764;10.436;2024-02-16T06:25:42;38.80;;;29.05;;
77625;SDS011;66794;43.764;10.436;2024-02-16T06:28:27;36.42;;;27.20;;
77625;SDS011;66794;43.764;10.436;2024-02-16T06:31:13;39.42;;;27.13;;
77625;SDS011;66794;43.764;10.436;2024-02-16T06:34:00;43.60;;;28.80;;
77625;SDS011;66794;43.764;10.436;2024-02-16T06:36:45;46.70;;;30.35;;
77625;SDS011;66794;43.764;10.436;2024-02-16T06:39:31;37.70;;;27.23;;
77625;SDS011;66794;43.764;10.436;2024-02-16T06:42:16;44.47;;;29.83;;
77625;SDS011;66794;43.764;10.436;2024-02-16T06:45:02;39.22;;;28.83;;
77625;SDS011;66794;43.764;10.436;2024-02-16T06:47:48;43.67;;;33.13;;
77625;SDS011;66794;43.764;10.436;2024-02-16T06:50:34;51.63;;;39.22;;
77625;SDS011;66794;43.764;10.436;2024-02-16T06:53:20;47.22;;;37.92;;
77625;SDS011;66794;43.764;10.436;2024-02-16T06:56:06;55.35;;;38.15;;
77625;SDS011;66794;43.764;10.436;2024-02-16T06:58:51;50.10;;;38.00;;
77625;SDS011;66794;43.764;10.436;2024-02-16T07:01:37;50.42;;;36.97;;
77625;SDS011;66794;43.764;10.436;2024-02-16T07:04:23;50.10;;;37.97;;
77625;SDS011;66794;43.764;10.436;2024-02-16T07:07:09;54.22;;;35.90;;
77625;SDS011;66794;43.764;10.436;2024-02-16T07:09:54;52.40;;;36.85;;
77625;SDS011;66794;43.764;10.436;2024-02-16T07:12:40;46.80;;;35.33;;
77625;SDS011;66794;43.764;10.436;2024-02-16T07:15:26;51.03;;;35.53;;
77625;SDS011;66794;43.764;10.436;2024-02-16T07:18:12;54.95;;;37.10;;
77625;SDS011;66794;43.764;10.436;2024-02-16T07:20:58;51.00;;;38.95;;
77625;SDS011;66794;43.764;10.436;2024-02-16T07:23:44;55.53;;;41.40;;
77625;SDS011;66794;43.764;10.436;2024-02-16T07:26:30;55.22;;;42.25;;
77625;SDS011;66794;43.764;10.436;2024-02-16T07:29:15;58.58;;;42.35;;
77625;SDS011;66794;43.764;10.436;2024-02-16T07:32:01;60.05;;;41.22;;
77625;SDS011;66794;43.764;10.436;2024-02-16T07:34:48;59.25;;;41.72;;
77625;SDS011;66794;43.764;10.436;2024-02-16T07:37:34;57.58;;;39.83;;
77625;SDS011;66794;43.764;10.436;2024-02-16T07:40:20;57.70;;;40.42;;
77625;SDS011;66794;43.764;10.436;2024-02-16T07:43:05;45.70;;;33.03;;
77625;SDS011;66794;43.764;10.436;2024-02-16T07:45:51;38.85;;;28.23;;
77625;SDS011;66794;43.764;10.436;2024-02-16T07:48:39;40.20;;;29.48;;
77625;SDS011;66794;43.764;10.436;2024-02-16T07:51:05;43.53;;;30.75;;
77625;SDS011;66794;43.764;10.436;2024-02-16T07:53:30;44.75;;;32.70;;
77625;SDS011;66794;43.764;10.436;2024-02-16T07:55:56;52.17;;;35.55;;
77625;SDS011;66794;43.764;10.436;2024-02-16T07:58:22;52.00;;;35.05;;
77625;SDS011;66794;43.764;10.436;2024-02-16T08:00:47;53.70;;;34.17;;
77625;SDS011;66794;43.764;10.436;2024-02-16T08:03:12;48.03;;;34.22;;
77625;SDS011;66794;43.764;10.436;2024-02-16T08:05:38;50.67;;;36.78;;
77625;SDS011;66794;43.764;10.436;2024-02-16T08:08:03;51.35;;;35.60;;
77625;SDS011;66794;43.764;10.436;2024-02-16T08:10:28;50.85;;;34.72;;
77625;SDS011;66794;43.764;10.436;2024-02-16T08:12:54;49.83;;;36.92;;
77625;SDS011;66794;43.764;10.436;2024-02-16T08:15:19;49.25;;;37.92;;
77625;SDS011;66794;43.764;10.436;2024-02-16T08:17:51;48.17;;;36.75;;
77625;SDS011;66794;43.764;10.436;2024-02-16T08:20:16;46.55;;;31.70;;
77625;SDS011;66794;43.764;10.436;2024-02-16T08:22:41;42.70;;;30.80;;
77625;SDS011;66794;43.764;10.436;2024-02-16T08:25:07;41.17;;;29.83;;
77625;SDS011;66794;43.764;10.436;2024-02-16T08:27:32;37.47;;;25.83;;
77625;SDS011;66794;43.764;10.436;2024-02-16T08:29:58;29.83;;;21.42;;
77625;SDS011;66794;43.764;10.436;2024-02-16T08:32:23;27.20;;;19.45;;
77625;SDS011;66794;43.764;10.436;2024-02-16T08:34:48;26.90;;;17.73;;
77625;SDS011;66794;43.764;10.436;2024-02-16T08:37:15;25.88;;;15.68;;
77625;SDS011;66794;43.764;10.436;2024-02-16T08:39:40;22.58;;;15.30;;
77625;SDS011;66794;43.764;10.436;2024-02-16T08:42:06;21.38;;;14.52;;
77625;SDS011;66794;43.764;10.436;2024-02-16T08:44:33;24.08;;;17.33;;
77625;SDS011;66794;43.764;10.436;2024-02-16T08:46:59;25.80;;;16.65;;
77625;SDS011;66794;43.764;10.436;2024-02-16T08:49:24;29.40;;;20.40;;
77625;SDS011;66794;43.764;10.436;2024-02-16T08:51:50;31.33;;;21.33;;
77625;SDS011;66794;43.764;10.436;2024-02-16T08:54:15;36.15;;;26.77;;
77625;SDS011;66794;43.764;10.436;2024-02-16T08:56:43;42.60;;;29.15;;
77625;SDS011;66794;43.764;10.436;2024-02-16T08:59:08;43.80;;;31.83;;
77625;SDS011;66794;43.764;10.436;2024-02-16T09:01:34;39.90;;;31.17;;
77625;SDS011;66794;43.764;10.436;2024-02-16T09:03:59;41.28;;;28.30;;
77625;SDS011;66794;43.764;10.436;2024-02-16T09:06:25;36.85;;;25.83;;
77625;SDS011;66794;43.764;10.436;2024-02-16T09:08:51;37.40;;;25.90;;
77625;SDS011;66794;43.764;10.436;2024-02-16T09:11:16;40.63;;;27.23;;
77625;SDS011;66794;43.764;10.436;2024-02-16T09:13:42;45.58;;;28.83;;
77625;SDS011;66794;43.764;10.436;2024-02-16T09:16:07;42.03;;;28.77;;
77625;SDS011;66794;43.764;10.436;2024-02-16T09:18:32;41.90;;;29.47;;
77625;SDS011;66794;43.764;10.436;2024-02-16T09:20:58;39.22;;;26.60;;
77625;SDS011;66794;43.764;10.436;2024-02-16T09:23:24;42.15;;;27.00;;
77625;SDS011;66794;43.764;10.436;2024-02-16T09:25:49;34.78;;;26.23;;
77625;SDS011;66794;43.764;10.436;2024-02-16T09:28:16;33.92;;;25.38;;
77625;SDS011;66794;43.764;10.436;2024-02-16T09:30:41;36.15;;;26.48;;
77625;SDS011;66794;43.764;10.436;2024-02-16T09:33:06;35.30;;;26.58;;
77625;SDS011;66794;43.764;10.436;2024-02-16T09:35:32;37.83;;;26.50;;
77625;SDS011;66794;43.764;10.436;2024-02-16T09:37:57;35.45;;;24.17;;
77625;SDS011;66794;43.764;10.436;2024-02-16T09:40:23;29.70;;;22.45;;
77625;SDS011;66794;43.764;10.436;2024-02-16T09:42:48;31.02;;;22.20;;
77625;SDS011;66794;43.764;10.436;2024-02-16T09:45:17;30.00;;;21.20;;
77625;SDS011;66794;43.764;10.436;2024-02-16T09:47:43;30.17;;;21.92;;
77625;SDS011;66794;43.764;10.436;2024-02-16T09:50:09;31.27;;;21.30;;
77625;SDS011;66794;43.764;10.436;2024-02-16T09:52:35;30.42;;;22.70;;
77625;SDS011;66794;43.764;10.436;2024-02-16T09:55:00;44.67;;;30.10;;
77625;SDS011;66794;43.764;10.436;2024-02-16T09:57:26;48.72;;;32.67;;
77625;SDS011;66794;43.764;10.436;2024-02-16T09:59:51;48.55;;;33.97;;
77625;SDS011;66794;43.764;10.436;2024-02-16T10:02:17;68.40;;;43.33;;
77625;SDS011;66794;43.764;10.436;2024-02-16T10:04:42;146.40;;;83.60;;
77625;SDS011;66794;43.764;10.436;2024-02-16T10:07:07;149.45;;;86.07;;
77625;SDS011;66794;43.764;10.436;2024-02-16T10:09:33;109.28;;;64.85;;
77625;SDS011;66794;43.764;10.436;2024-02-16T10:11:58;93.63;;;55.00;;
77625;SDS011;66794;43.764;10.436;2024-02-16T10:14:23;100.65;;;60.28;;
77625;SDS011;66794;43.764;10.436;2024-02-16T10:17:03;109.75;;;63.53;;
77625;SDS011;66794;43.764;10.436;2024-02-16T10:19:29;88.90;;;54.63;;
77625;SDS011;66794;43.764;10.436;2024-02-16T10:22:19;81.82;;;49.90;;
77625;SDS011;66794;43.764;10.436;2024-02-16T10:24:45;75.22;;;46.17;;
77625;SDS011;66794;43.764;10.436;2024-02-16T10:27:14;78.75;;;46.88;;
77625;SDS011;66794;43.764;10.436;2024-02-16T10:29:42;71.95;;;44.45;;
77625;SDS011;66794;43.764;10.436;2024-02-16T10:32:08;63.65;;;39.67;;
77625;SDS011;66794;43.764;10.436;2024-02-16T10:34:34;66.47;;;41.65;;
77625;SDS011;66794;43.764;10.436;2024-02-16T10:37:00;62.20;;;39.83;;
77625;SDS011;66794;43.764;10.436;2024-02-16T10:39:25;59.28;;;36.60;;
77625;SDS011;66794;43.764;10.436;2024-02-16T10:41:50;54.22;;;34.65;;
77625;SDS011;66794;43.764;10.436;2024-02-16T10:44:16;51.65;;;33.55;;
77625;SDS011;66794;43.764;10.436;2024-02-16T10:46:41;49.80;;;31.10;;
77625;SDS011;66794;43.764;10.436;2024-02-16T10:49:06;47.00;;;30.90;;
77625;SDS011;66794;43.764;10.436;2024-02-16T10:51:45;50.17;;;32.10;;
77625;SDS011;66794;43.764;10.436;2024-02-16T10:54:12;48.10;;;30.92;;
77625;SDS011;66794;43.764;10.436;2024-02-16T10:56:40;42.00;;;28.25;;
77625;SDS011;66794;43.764;10.436;2024-02-16T10:59:08;39.83;;;25.73;;
77625;SDS011;66794;43.764;10.436;2024-02-16T11:01:38;26.83;;;20.05;;
77625;SDS011;66794;43.764;10.436;2024-02-16T11:04:03;36.40;;;18.92;;
77625;SDS011;66794;43.764;10.436;2024-02-16T11:06:29;29.48;;;21.67;;
77625;SDS011;66794;43.764;10.436;2024-02-16T11:09:00;24.23;;;17.75;;
77625;SDS011;66794;43.764;10.436;2024-02-16T11:11:26;25.20;;;17.80;;
77625;SDS011;66794;43.764;10.436;2024-02-16T11:13:54;31.83;;;19.25;;
77625;SDS011;66794;43.764;10.436;2024-02-16T11:16:19;35.97;;;25.95;;
77625;SDS011;66794;43.764;10.436;2024-02-16T11:18:45;32.22;;;22.95;;
77625;SDS011;66794;43.764;10.436;2024-02-16T11:21:12;25.63;;;19.35;;
77625;SDS011;66794;43.764;10.436;2024-02-16T11:23:37;32.30;;;21.35;;
77625;SDS011;66794;43.764;10.436;2024-02-16T11:26:05;30.73;;;21.17;;
77625;SDS011;66794;43.764;10.436;2024-02-16T11:28:36;29.58;;;19.23;;
77625;SDS011;66794;43.764;10.436;2024-02-16T11:31:01;30.88;;;19.38;;
77625;SDS011;66794;43.764;10.436;2024-02-16T11:33:27;28.42;;;20.23;;
77625;SDS011;66794;43.764;10.436;2024-02-16T11:35:57;24.45;;;17.17;;
77625;SDS011;66794;43.764;10.436;2024-02-16T11:38:22;29.80;;;18.42;;
77625;SDS011;66794;43.764;10.436;2024-02-16T11:40:57;24.83;;;17.95;;
77625;SDS011;66794;43.764;10.436;2024-02-16T11:43:23;29.55;;;19.38;;
77625;SDS011;66794;43.764;10.436;2024-02-16T11:45:48;26.83;;;19.25;;
77625;SDS011;66794;43.764;10.436;2024-02-16T11:48:18;25.15;;;18.27;;
77625;SDS011;66794;43.764;10.436;2024-02-16T11:50:43;31.90;;;20.58;;
77625;SDS011;66794;43.764;10.436;2024-02-16T11:53:09;32.57;;;22.23;;
77625;SDS011;66794;43.764;10.436;2024-02-16T11:55:34;30.98;;;21.55;;
77625;SDS011;66794;43.764;10.436;2024-02-16T11:58:00;36.95;;;22.30;;
77625;SDS011;66794;43.764;10.436;2024-02-16T12:00:25;34.40;;;21.50;;
77625;SDS011;66794;43.764;10.436;2024-02-16T12:03:10;29.17;;;20.63;;
77625;SDS011;66794;43.764;10.436;2024-02-16T12:05:57;31.77;;;20.98;;
77625;SDS011;66794;43.764;10.436;2024-02-16T12:08:43;29.50;;;19.88;;
77625;SDS011;66794;43.764;10.436;2024-02-16T12:11:30;28.60;;;20.35;;
77625;SDS011;66794;43.764;10.436;2024-02-16T12:14:16;28.08;;;20.67;;
77625;SDS011;66794;43.764;10.436;2024-02-16T12:17:03;27.52;;;20.25;;
77625;SDS011;66794;43.764;10.436;2024-02-16T12:19:49;29.05;;;20.83;;
77625;SDS011;66794;43.764;10.436;2024-02-16T12:22:35;30.88;;;20.95;;
77625;SDS011;66794;43.764;10.436;2024-02-16T12:25:21;24.52;;;18.90;;
77625;SDS011;66794;43.764;10.436;2024-02-16T12:28:06;34.55;;;24.42;;
77625;SDS011;66794;43.764;10.436;2024-02-16T12:30:53;53.53;;;36.58;;
77625;SDS011;66794;43.764;10.436;2024-02-16T12:33:39;66.75;;;44.88;;
77625;SDS011;66794;43.764;10.436;2024-02-16T12:36:25;42.03;;;26.75;;
77625;SDS011;66794;43.764;10.436;2024-02-16T12:39:11;32.10;;;21.48;;
77625;SDS011;66794;43.764;10.436;2024-02-16T12:42:00;30.92;;;20.35;;
77625;SDS011;66794;43.764;10.436;2024-02-16T12:44:45;30.75;;;19.83;;
77625;SDS011;66794;43.764;10.436;2024-02-16T12:47:31;29.83;;;21.38;;
77625;SDS011;66794;43.764;10.436;2024-02-16T12:50:17;31.60;;;23.17;;
77625;SDS011;66794;43.764;10.436;2024-02-16T12:53:03;28.52;;;21.88;;
77625;SDS011;66794;43.764;10.436;2024-02-16T12:55:48;29.73;;;21.13;;
77625;SDS011;66794;43.764;10.436;2024-02-16T12:58:35;28.83;;;20.92;;
77625;SDS011;66794;43.764;10.436;2024-02-16T13:01:20;31.88;;;21.95;;
77625;SDS011;66794;43.764;10.436;2024-02-16T13:04:06;29.48;;;21.25;;
77625;SDS011;66794;43.764;10.436;2024-02-16T13:06:52;30.25;;;19.13;;
77625;SDS011;66794;43.764;10.436;2024-02-16T13:09:38;27.75;;;18.27;;
77625;SDS011;66794;43.764;10.436;2024-02-16T13:12:24;25.95;;;18.80;;
77625;SDS011;66794;43.764;10.436;2024-02-16T13:15:09;24.42;;;18.08;;
77625;SDS011;66794;43.764;10.436;2024-02-16T13:17:55;31.02;;;19.77;;
77625;SDS011;66794;43.764;10.436;2024-02-16T13:20:20;27.25;;;19.55;;
77625;SDS011;66794;43.764;10.436;2024-02-16T13:22:46;28.20;;;20.92;;
77625;SDS011;66794;43.764;10.436;2024-02-16T13:25:11;27.33;;;20.40;;
77625;SDS011;66794;43.764;10.436;2024-02-16T13:27:36;31.10;;;21.03;;
77625;SDS011;66794;43.764;10.436;2024-02-16T13:30:02;26.17;;;19.30;;
77625;SDS011;66794;43.764;10.436;2024-02-16T13:32:27;26.73;;;19.25;;
77625;SDS011;66794;43.764;10.436;2024-02-16T13:34:53;29.45;;;19.92;;
77625;SDS011;66794;43.764;10.436;2024-02-16T13:37:18;29.40;;;20.77;;
77625;SDS011;66794;43.764;10.436;2024-02-16T13:39:43;28.77;;;19.52;;
77625;SDS011;66794;43.764;10.436;2024-02-16T13:42:09;28.63;;;19.58;;
77625;SDS011;66794;43.764;10.436;2024-02-16T13:44:35;28.30;;;20.02;;
77625;SDS011;66794;43.764;10.436;2024-02-16T13:47:01;28.35;;;19.50;;
77625;SDS011;66794;43.764;10.436;2024-02-16T13:49:26;30.83;;;20.88;;
77625;SDS011;66794;43.764;10.436;2024-02-16T13:51:51;28.00;;;20.08;;
77625;SDS011;66794;43.764;10.436;2024-02-16T13:54:17;26.48;;;19.65;;
77625;SDS011;66794;43.764;10.436;2024-02-16T13:56:42;32.90;;;22.23;;
77625;SDS011;66794;43.764;10.436;2024-02-16T13:59:08;33.58;;;21.70;;
77625;SDS011;66794;43.764;10.436;2024-02-16T14:01:33;34.90;;;23.90;;
77625;SDS011;66794;43.764;10.436;2024-02-16T14:03:59;34.90;;;22.55;;
77625;SDS011;66794;43.764;10.436;2024-02-16T14:06:25;30.70;;;22.98;;
77625;SDS011;66794;43.764;10.436;2024-02-16T14:08:50;30.20;;;22.13;;
77625;SDS011;66794;43.764;10.436;2024-02-16T14:11:18;31.70;;;23.55;;
77625;SDS011;66794;43.764;10.436;2024-02-16T14:13:43;31.90;;;22.85;;
77625;SDS011;66794;43.764;10.436;2024-02-16T14:16:08;32.15;;;23.17;;
77625;SDS011;66794;43.764;10.436;2024-02-16T14:18:35;33.72;;;23.48;;
77625;SDS011;66794;43.764;10.436;2024-02-16T14:21:00;31.63;;;21.98;;
77625;SDS011;66794;43.764;10.436;2024-02-16T14:23:26;29.65;;;22.45;;
77625;SDS011;66794;43.764;10.436;2024-02-16T14:25:51;26.53;;;20.83;;
77625;SDS011;66794;43.764;10.436;2024-02-16T14:28:16;31.80;;;22.27;;
77625;SDS011;66794;43.764;10.436;2024-02-16T14:30:42;30.00;;;21.40;;
77625;SDS011;66794;43.764;10.436;2024-02-16T14:33:07;32.67;;;22.35;;
77625;SDS011;66794;43.764;10.436;2024-02-16T14:35:33;33.80;;;22.48;;
77625;SDS011;66794;43.764;10.436;2024-02-16T14:38:01;33.58;;;22.77;;
77625;SDS011;66794;43.764;10.436;2024-02-16T14:40:26;33.45;;;22.30;;
77625;SDS011;66794;43.764;10.436;2024-02-16T14:42:51;29.52;;;22.48;;
77625;SDS011;66794;43.764;10.436;2024-02-16T14:45:17;34.05;;;23.60;;
77625;SDS011;66794;43.764;10.436;2024-02-16T14:47:46;33.67;;;21.95;;
77625;SDS011;66794;43.764;10.436;2024-02-16T14:50:11;33.95;;;22.42;;
77625;SDS011;66794;43.764;10.436;2024-02-16T14:52:38;35.03;;;22.20;;
77625;SDS011;66794;43.764;10.436;2024-02-16T14:55:03;31.10;;;22.38;;
77625;SDS011;66794;43.764;10.436;2024-02-16T14:57:29;32.97;;;22.80;;
77625;SDS011;66794;43.764;10.436;2024-02-16T14:59:54;29.80;;;22.90;;
77625;SDS011;66794;43.764;10.436;2024-02-16T15:02:22;34.78;;;23.40;;
77625;SDS011;66794;43.764;10.436;2024-02-16T15:04:47;31.63;;;22.73;;
77625;SDS011;66794;43.764;10.436;2024-02-16T15:07:12;30.33;;;22.20;;